sim
Sign-in with your pilot id or email,
or register
Callsign
Passwort

Schedule Details

Flight Number: DLH1835 (2)
Departure: Malaga Costa Del Sol Airport (LEMG) at 15:05
Arrival: Munich Airport (EDDM) at 18:00
Route: Lufthansa Passenger Schedule. Enter filed route here before submitting Pirep.

Weather Information
Getting current METAR information for LEMG 211200Z 15010KT 120V190 CAVOK 27/16 Q1016 NOSIG
Getting current METAR information for EDDM 211220Z 03005KT 330V080 CAVOK 22/12 Q1016 NOSIG

Schedule Frequency

Route Map